Time,TemperatureF,DewpointF,PressureIn,WindDirection,WindDirectionDegrees,WindSpeedMPH,WindSpeedGustMPH,Humidity,HourlyPrecipIn,Conditions,Clouds,dailyrainin,SoftwareType,DateUTC
2013-04-12 00:08:00,33.8,33.5,29.57,ENE,67,3.7,-999.0,99,-99.99,,,0.00,Acu-Link.com,2013-04-12 04:08:00,
2013-04-12 00:23:00,34.0,33.7,29.55,NNE,22,5.3,-999.0,99,-99.99,,,0.00,Acu-Link.com,2013-04-12 04:23:00,
2013-04-12 00:38:00,34.0,33.7,29.54,ESE,112,2.2,-999.0,99,-99.99,,,0.02,Acu-Link.com,2013-04-12 04:38:00,
2013-04-12 00:53:00,34.0,33.7,29.54,NE,45,0.0,-999.0,99,-99.99,,,0.04,Acu-Link.com,2013-04-12 04:53:00,
2013-04-12 01:08:00,34.0,33.7,29.54,NE,45,0.0,-999.0,99,-99.99,,,0.06,Acu-Link.com,2013-04-12 05:08:00,
2013-04-12 01:23:00,34.0,33.7,29.54,NNE,22,0.0,-999.0,99,-99.99,,,0.08,Acu-Link.com,2013-04-12 05:23:00,
2013-04-12 01:38:00,34.0,33.7,29.51,NE,45,3.7,-999.0,99,-99.99,,,0.10,Acu-Link.com,2013-04-12 05:38:00,
2013-04-12 01:54:00,33.8,33.5,29.51,NE,45,3.2,-999.0,99,-99.99,,,0.12,Acu-Link.com,2013-04-12 05:54:00,
2013-04-12 02:09:00,33.8,33.5,29.51,North,0,1.7,-999.0,99,-99.99,,,0.14,Acu-Link.com,2013-04-12 06:09:00,
2013-04-12 02:24:00,33.8,33.5,29.51,NNE,22,2.2,-999.0,99,-99.99,,,0.16,Acu-Link.com,2013-04-12 06:24:00,
2013-04-12 02:39:00,33.6,33.3,29.50,NNE,22,4.2,-999.0,99,-99.99,,,0.18,Acu-Link.com,2013-04-12 06:39:00,
2013-04-12 02:54:00,33.6,33.3,29.51,NNE,22,3.7,-999.0,99,-99.99,,,0.21,Acu-Link.com,2013-04-12 06:54:00,
2013-04-12 03:09:00,33.4,33.1,29.51,NNE,22,3.7,-999.0,99,-99.99,,,0.23,Acu-Link.com,2013-04-12 07:09:00,
2013-04-12 03:24:00,33.4,33.1,29.50,NE,45,5.8,-999.0,99,-99.99,,,0.30,Acu-Link.com,2013-04-12 07:24:00,
2013-04-12 03:39:00,33.3,33.0,29.50,NNE,22,6.8,-999.0,99,-99.99,,,0.31,Acu-Link.com,2013-04-12 07:39:00,
2013-04-12 03:54:00,33.1,32.8,29.49,NNE,22,5.3,-999.0,99,-99.99,,,0.33,Acu-Link.com,2013-04-12 07:54:00,
2013-04-12 04:11:00,33.1,32.8,29.48,NNE,22,6.3,-999.0,99,-99.99,,,0.34,Acu-Link.com,2013-04-12 08:11:00,
2013-04-12 04:27:00,32.9,32.7,29.48,North,0,7.3,-999.0,99,-99.99,,,0.36,Acu-Link.com,2013-04-12 08:27:00,
2013-04-12 04:42:00,32.9,32.7,29.49,North,0,3.7,-999.0,99,-99.99,,,0.38,Acu-Link.com,2013-04-12 08:42:00,
2013-04-12 04:57:00,32.7,32.5,29.48,NNE,22,3.7,-999.0,99,-99.99,,,0.39,Acu-Link.com,2013-04-12 08:57:00,
2013-04-12 05:12:00,32.7,32.5,29.48,NE,45,3.2,-999.0,99,-99.99,,,0.42,Acu-Link.com,2013-04-12 09:12:00,
2013-04-12 05:27:00,32.7,32.5,29.47,NE,45,4.2,-999.0,99,-99.99,,,0.42,Acu-Link.com,2013-04-12 09:27:00,
2013-04-12 05:42:00,32.7,32.5,29.47,NNE,22,2.7,-999.0,99,-99.99,,,0.43,Acu-Link.com,2013-04-12 09:42:00,
2013-04-12 05:57:00,32.7,32.5,29.47,North,0,4.2,-999.0,99,-99.99,,,0.43,Acu-Link.com,2013-04-12 09:57:00,
2013-04-12 06:13:00,32.7,32.5,29.44,East,90,5.3,-999.0,99,-99.99,,,0.43,Acu-Link.com,2013-04-12 10:13:00,
2013-04-12 06:28:00,32.5,32.3,29.44,NE,45,2.7,-999.0,99,-99.99,,,0.45,Acu-Link.com,2013-04-12 10:28:00,
2013-04-12 06:43:00,32.5,32.3,29.42,NE,45,2.7,-999.0,99,-99.99,,,0.45,Acu-Link.com,2013-04-12 10:43:00,
2013-04-12 06:58:00,32.5,32.3,29.43,ENE,67,3.2,-999.0,99,-99.99,,,0.45,Acu-Link.com,2013-04-12 10:58:00,
2013-04-12 07:13:00,32.5,32.3,29.44,NE,45,2.7,-999.0,99,-99.99,,,0.45,Acu-Link.com,2013-04-12 11:13:00,
2013-04-12 07:28:00,32.9,32.7,29.43,ENE,67,1.7,-999.0,99,-99.99,,,0.45,Acu-Link.com,2013-04-12 11:28:00,
2013-04-12 07:44:00,32.9,32.7,29.44,NE,45,1.1,-999.0,99,-99.99,,,0.45,Acu-Link.com,2013-04-12 11:44:00,
2013-04-12 07:59:00,33.1,32.8,29.44,ENE,67,0.0,-999.0,99,-99.99,,,0.45,Acu-Link.com,2013-04-12 11:59:00,
2013-04-12 08:14:00,33.6,33.3,29.44,ENE,67,1.1,-999.0,99,-99.99,,,0.45,Acu-Link.com,2013-04-12 12:14:00,
2013-04-12 08:29:00,34.5,34.2,29.44,NE,45,0.0,-999.0,99,-99.99,,,0.45,Acu-Link.com,2013-04-12 12:29:00,
2013-04-12 08:44:00,35.1,34.8,29.45,NNE,22,0.0,-999.0,99,-99.99,,,0.45,Acu-Link.com,2013-04-12 12:44:00,
2013-04-12 08:59:00,36.1,35.6,29.45,ENE,67,0.0,-999.0,98,-99.99,,,0.45,Acu-Link.com,2013-04-12 12:59:00,
2013-04-12 09:14:00,37.0,36.5,29.44,ESE,112,1.7,-999.0,98,-99.99,,,0.45,Acu-Link.com,2013-04-12 13:14:00,
2013-04-12 09:29:00,37.6,36.6,29.44,SSW,202,0.0,-999.0,96,-99.99,,,0.45,Acu-Link.com,2013-04-12 13:29:00,
2013-04-12 09:44:00,38.3,36.7,29.45,East,90,1.7,-999.0,94,-99.99,,,0.45,Acu-Link.com,2013-04-12 13:44:00,
2013-04-12 09:59:00,38.7,36.9,29.45,SW,225,2.2,-999.0,93,-99.99,,,0.45,Acu-Link.com,2013-04-12 13:59:00,
2013-04-12 10:15:00,37.9,36.6,29.46,SW,225,1.7,-999.0,95,-99.99,,,0.45,Acu-Link.com,2013-04-12 14:15:00,
2013-04-12 10:30:00,37.8,36.5,29.46,SSE,157,2.7,-999.0,95,-99.99,,,0.45,Acu-Link.com,2013-04-12 14:30:00,
2013-04-12 10:45:00,38.3,37.3,29.46,SW,225,2.7,-999.0,96,-99.99,,,0.45,Acu-Link.com,2013-04-12 14:45:00,
2013-04-12 11:00:00,39.0,37.4,29.46,SSW,202,2.7,-999.0,94,-99.99,,,0.45,Acu-Link.com,2013-04-12 15:00:00,
2013-04-12 11:15:00,38.8,37.2,29.46,West,270,4.2,-999.0,94,-99.99,,,0.45,Acu-Link.com,2013-04-12 15:15:00,
2013-04-12 11:30:00,38.5,37.2,29.47,South,180,3.2,-999.0,95,-99.99,,,0.45,Acu-Link.com,2013-04-12 15:30:00,
2013-04-12 11:45:00,38.7,37.7,29.48,West,270,2.7,-999.0,96,-99.99,,,0.45,Acu-Link.com,2013-04-12 15:45:00,
2013-04-12 12:00:00,38.8,37.8,29.48,SSW,202,3.7,-999.0,96,-99.99,,,0.45,Acu-Link.com,2013-04-12 16:00:00,
2013-04-12 12:15:00,38.8,37.5,29.49,West,270,3.2,-999.0,95,-99.99,,,0.45,Acu-Link.com,2013-04-12 16:15:00,
2013-04-12 12:31:00,39.4,38.1,29.48,South,180,4.7,-999.0,95,-99.99,,,0.45,Acu-Link.com,2013-04-12 16:31:00,
2013-04-12 12:46:00,39.9,38.0,29.48,West,270,3.7,-999.0,93,-99.99,,,0.45,Acu-Link.com,2013-04-12 16:46:00,
2013-04-12 13:39:00,39.9,37.8,29.48,SSE,157,4.7,-999.0,92,-99.99,,,0.45,Acu-Link.com,2013-04-12 17:39:00,
2013-04-12 15:50:00,37.9,36.6,29.52,West,270,6.8,-999.0,95,-99.99,,,0.46,Acu-Link.com,2013-04-12 19:50:00,
2013-04-12 16:05:00,37.9,36.1,29.52,West,270,7.3,-999.0,93,-99.99,,,0.46,Acu-Link.com,2013-04-12 20:05:00,
2013-04-12 16:22:00,39.0,36.3,29.53,SSW,202,5.3,-999.0,90,-99.99,,,0.46,Acu-Link.com,2013-04-12 20:22:00,
2013-04-12 16:45:00,39.7,36.7,29.54,SW,225,5.8,-999.0,89,-99.99,,,0.46,Acu-Link.com,2013-04-12 20:45:00,
2013-04-12 17:04:00,40.5,35.8,29.54,West,270,6.3,-999.0,83,-99.99,,,0.46,Acu-Link.com,2013-04-12 21:04:00,
2013-04-12 17:20:00,41.5,36.4,29.54,WSW,247,6.3,-999.0,82,-99.99,,,0.46,Acu-Link.com,2013-04-12 21:20:00,
2013-04-12 17:35:00,41.9,36.2,29.55,SW,225,6.3,-999.0,80,-99.99,,,0.46,Acu-Link.com,2013-04-12 21:35:00,
2013-04-12 17:50:00,41.5,35.8,29.56,West,270,4.2,-999.0,80,-99.99,,,0.46,Acu-Link.com,2013-04-12 21:50:00,
2013-04-12 18:06:00,40.8,35.7,29.56,South,180,8.3,-999.0,82,-99.99,,,0.46,Acu-Link.com,2013-04-12 22:06:00,
2013-04-12 18:23:00,40.5,35.8,29.56,West,270,9.9,-999.0,83,-99.99,,,0.46,Acu-Link.com,2013-04-12 22:23:00,
2013-04-12 20:11:00,39.0,36.9,29.58,SW,225,4.7,-999.0,92,-99.99,,,0.46,Acu-Link.com,2013-04-13 00:11:00,
2013-04-12 21:01:00,39.2,36.8,29.58,SE,135,4.7,-999.0,91,-99.99,,,0.46,Acu-Link.com,2013-04-13 01:01:00,
2013-04-12 22:09:00,39.6,37.5,29.60,South,180,6.3,-999.0,92,-99.99,,,0.46,Acu-Link.com,2013-04-13 02:09:00,
2013-04-12 23:07:00,39.4,38.6,29.61,SW,225,3.2,-999.0,97,-99.99,,,0.46,Acu-Link.com,2013-04-13 03:07:00,
2013-04-12 23:37:00,38.8,38.5,29.62,West,270,3.2,-999.0,99,-99.99,,,0.46,Acu-Link.com,2013-04-13 03:37:00,